Time;durP1;ratioP1;P1;durP2;ratioP2;P2;SDS_P1;SDS_P2;PMS_P1;PMS_P2;Temp;Humidity;BMP_temperature;BMP_pressure;BME280_temperature;BME280_humidity;BME280_pressure;Samples;Min_cycle;Max_cycle;Signal;HPM_P1;HPM_P2
2023/06/13 00:01:25;;;;;;;3.25;2.40;;;25.40;45.50;;;;;;5032176;28;20116;-82
2023/06/13 00:03:53;;;;;;;3.85;2.40;;;25.50;45.50;;;;;;5015006;28;20120;-82
2023/06/13 00:06:19;;;;;;;4.53;2.65;;;25.40;45.10;;;;;;4999517;28;20385;-82
2023/06/13 00:08:44;;;;;;;4.45;2.75;;;25.40;45.00;;;;;;5032078;28;20030;-82
2023/06/13 00:11:10;;;;;;;4.40;2.40;;;25.40;46.00;;;;;;5031473;28;20089;-82
2023/06/13 00:13:39;;;;;;;3.78;2.83;;;25.40;46.00;;;;;;5032980;28;20493;-82
2023/06/13 00:16:06;;;;;;;6.93;2.33;;;25.40;45.80;;;;;;5031921;28;20122;-81
2023/06/13 00:18:32;;;;;;;5.47;2.40;;;25.40;46.00;;;;;;5031687;28;20029;-82
2023/06/13 00:20:58;;;;;;;4.05;2.40;;;25.40;45.70;;;;;;5033112;28;20373;-82
2023/06/13 00:23:25;;;;;;;8.88;2.80;;;25.40;45.90;;;;;;5014882;28;20043;-82
2023/06/13 00:25:52;;;;;;;3.75;2.42;;;25.40;46.10;;;;;;5032748;28;20040;-82
2023/06/13 00:28:18;;;;;;;4.50;2.50;;;25.40;45.70;;;;;;5031787;28;20033;-81
2023/06/13 00:30:45;;;;;;;3.40;2.33;;;25.30;45.80;;;;;;5031504;28;20032;-82
2023/06/13 00:33:17;;;;;;;7.57;2.40;;;25.30;46.80;;;;;;5031869;28;20079;-82
2023/06/13 00:35:47;;;;;;;3.38;2.60;;;25.30;46.00;;;;;;5015788;28;20056;-82
2023/06/13 00:38:13;;;;;;;4.57;2.60;;;25.30;46.30;;;;;;5034440;28;20037;-82
2023/06/13 00:40:39;;;;;;;5.97;2.50;;;25.30;46.40;;;;;;5036388;28;20030;-82
2023/06/13 00:43:06;;;;;;;4.95;2.63;;;25.20;46.40;;;;;;5036447;28;20072;-82
2023/06/13 00:45:33;;;;;;;2.75;2.53;;;25.20;46.60;;;;;;5035118;28;20040;-79
2023/06/13 00:48:03;;;;;;;3.15;2.38;;;25.10;46.20;;;;;;5035190;28;20079;-79
2023/06/13 00:50:44;;;;;;;4.10;2.78;;;25.10;46.50;;;;;;5036584;28;20021;-79
2023/06/13 00:53:16;;;;;;;3.40;2.38;;;25.00;46.70;;;;;;5035120;28;20053;-79
2023/06/13 00:55:42;;;;;;;3.90;2.47;;;25.00;46.50;;;;;;5018943;28;20034;-79
2023/06/13 00:58:10;;;;;;;3.90;2.25;;;25.00;46.80;;;;;;5018392;28;20037;-79
2023/06/13 01:00:39;;;;;;;4.07;2.33;;;25.00;47.10;;;;;;5034875;28;20029;-79
2023/06/13 01:03:15;;;;;;;4.57;2.80;;;25.00;46.80;;;;;;5018155;28;20172;-79
2023/06/13 01:05:48;;;;;;;6.22;2.65;;;25.00;47.10;;;;;;5034505;28;20044;-79
2023/06/13 01:08:17;;;;;;;5.70;2.25;;;25.00;47.60;;;;;;5034879;28;20402;-79
2023/06/13 01:10:45;;;;;;;4.93;2.90;;;24.90;46.90;;;;;;5034876;28;20033;-79
2023/06/13 01:13:11;;;;;;;3.55;2.15;;;24.90;47.50;;;;;;5035722;28;20394;-79
2023/06/13 01:15:47;;;;;;;3.97;2.67;;;24.90;47.30;;;;;;5036278;28;20018;-79
2023/06/13 01:18:17;;;;;;;4.85;2.55;;;24.90;46.80;;;;;;5034414;28;20378;-79
2023/06/13 01:20:44;;;;;;;4.68;2.90;;;24.80;47.00;;;;;;5035965;28;20032;-79
2023/06/13 01:23:34;;;;;;;5.35;2.30;;;24.80;46.80;;;;;;5035734;28;20032;-79
2023/06/13 01:26:03;;;;;;;3.08;2.28;;;24.80;47.20;;;;;;5034720;28;20171;-79
2023/06/13 01:28:33;;;;;;;3.17;2.83;;;24.80;47.30;;;;;;5035724;28;20025;-79
2023/06/13 01:31:04;;;;;;;4.18;2.90;;;24.80;47.40;;;;;;5035562;28;20523;-80
2023/06/13 01:33:31;;;;;;;3.33;2.80;;;24.60;47.20;;;;;;5035658;28;20029;-80
2023/06/13 01:35:57;;;;;;;5.55;2.80;;;24.50;47.80;;;;;;5033935;28;20431;-80
2023/06/13 01:38:23;;;;;;;4.50;2.58;;;24.50;47.70;;;;;;5035505;28;20116;-79
2023/06/13 01:40:49;;;;;;;7.05;2.88;;;24.40;48.00;;;;;;5035214;28;20029;-82
2023/06/13 01:43:15;;;;;;;3.30;2.80;;;24.40;48.10;;;;;;5017105;28;20065;-80
2023/06/13 01:45:41;;;;;;;4.40;2.58;;;24.30;47.80;;;;;;5035419;28;20038;-79
2023/06/13 01:48:16;;;;;;;3.75;2.30;;;24.20;48.40;;;;;;5017582;28;20034;-80
2023/06/13 01:51:03;;;;;;;5.50;2.80;;;24.10;48.20;;;;;;5033126;28;20474;-80
2023/06/13 01:53:37;;;;;;;4.20;2.70;;;24.20;48.50;;;;;;5035320;28;20076;-80
2023/06/13 01:56:08;;;;;;;4.30;2.28;;;24.20;48.40;;;;;;5035295;28;20030;-80
2023/06/13 01:58:47;;;;;;;6.28;3.10;;;24.20;48.60;;;;;;5035177;28;20068;-79
2023/06/13 02:01:14;;;;;;;4.90;2.55;;;24.20;48.10;;;;;;5033658;28;20025;-79
2023/06/13 02:03:40;;;;;;;4.40;2.92;;;24.20;49.00;;;;;;5034495;28;20040;-79
2023/06/13 02:06:05;;;;;;;4.53;2.97;;;24.30;49.00;;;;;;5000910;28;20034;-79
2023/06/13 02:08:31;;;;;;;2.58;2.25;;;24.30;48.40;;;;;;5033881;28;20039;-80
2023/06/13 02:10:57;;;;;;;2.75;2.47;;;24.30;48.90;;;;;;5016954;28;20499;-80
2023/06/13 02:13:23;;;;;;;5.38;2.85;;;24.30;48.60;;;;;;5034579;28;20044;-79
2023/06/13 02:15:50;;;;;;;3.97;2.13;;;24.30;48.30;;;;;;5033504;28;20057;-80
2023/06/13 02:18:16;;;;;;;2.95;2.35;;;24.30;48.90;;;;;;5035089;28;20365;-79
2023/06/13 02:20:42;;;;;;;6.28;2.53;;;24.40;49.50;;;;;;5034782;28;20037;-80
2023/06/13 02:23:09;;;;;;;6.15;3.40;;;24.50;49.30;;;;;;5033303;28;20028;-79
2023/06/13 02:25:35;;;;;;;6.35;2.72;;;24.40;48.10;;;;;;5034302;28;20038;-80
2023/06/13 02:28:01;;;;;;;3.40;2.58;;;24.40;48.90;;;;;;5034664;28;20053;-80
2023/06/13 02:30:26;;;;;;;3.47;2.60;;;24.40;49.00;;;;;;5033171;28;20068;-80
2023/06/13 02:32:52;;;;;;;2.60;2.40;;;24.40;49.30;;;;;;5034527;28;20034;-80
2023/06/13 02:35:22;;;;;;;3.45;2.63;;;24.40;49.10;;;;;;5033882;28;20034;-79
2023/06/13 02:37:50;;;;;;;5.80;3.58;;;24.40;48.80;;;;;;5033430;28;20029;-79
2023/06/13 02:40:16;;;;;;;4.05;3.40;;;24.30;48.50;;;;;;5016881;28;20083;-79
2023/06/13 02:42:45;;;;;;;7.97;5.10;;;24.30;48.90;;;;;;5032782;28;20057;-79
2023/06/13 02:45:11;;;;;;;7.28;4.55;;;24.30;48.60;;;;;;5034047;28;20041;-80
2023/06/13 02:47:36;;;;;;;5.50;4.45;;;24.20;48.70;;;;;;5032754;28;20029;-79
2023/06/13 02:50:02;;;;;;;5.40;4.30;;;24.10;48.40;;;;;;5033051;28;20056;-79
2023/06/13 02:52:28;;;;;;;6.45;4.00;;;24.00;48.90;;;;;;5034177;28;20026;-79
2023/06/13 02:54:54;;;;;;;6.00;4.40;;;23.90;49.30;;;;;;5032551;28;20040;-79
2023/06/13 02:57:19;;;;;;;4.15;3.53;;;23.90;49.10;;;;;;5016255;28;20029;-79
2023/06/13 02:59:47;;;;;;;4.15;3.50;;;23.80;49.40;;;;;;5032714;28;20117;-80
2023/06/13 03:02:13;;;;;;;4.63;3.58;;;23.80;49.60;;;;;;5016357;28;20489;-79
2023/06/13 03:04:39;;;;;;;6.45;3.53;;;23.70;50.10;;;;;;5033651;28;20041;-79
2023/06/13 03:07:05;;;;;;;5.32;3.08;;;23.80;49.80;;;;;;5016272;28;20030;-79
2023/06/13 03:09:32;;;;;;;4.97;2.92;;;23.70;49.90;;;;;;5033704;28;20026;-80
2023/06/13 03:11:59;;;;;;;3.67;3.13;;;23.70;50.30;;;;;;5033555;28;20037;-79
2023/06/13 03:14:25;;;;;;;3.88;2.83;;;23.70;49.90;;;;;;5032384;28;20470;-79
2023/06/13 03:16:52;;;;;;;3.35;2.80;;;23.70;50.30;;;;;;5032158;28;20040;-80
2023/06/13 03:19:18;;;;;;;5.10;2.95;;;23.70;50.40;;;;;;5016308;28;20033;-79
2023/06/13 03:21:44;;;;;;;3.28;2.85;;;23.80;50.70;;;;;;5033663;28;20038;-80
2023/06/13 03:24:10;;;;;;;4.22;3.20;;;23.80;50.20;;;;;;5016117;28;20390;-80
2023/06/13 03:26:38;;;;;;;4.65;3.15;;;23.70;50.00;;;;;;5015899;28;20033;-80
2023/06/13 03:29:04;;;;;;;3.67;2.60;;;23.50;50.20;;;;;;5033389;28;20462;-80
2023/06/13 03:31:30;;;;;;;3.33;2.83;;;23.50;51.10;;;;;;4999890;28;20029;-80
2023/06/13 03:33:56;;;;;;;4.72;3.10;;;23.50;51.00;;;;;;5033133;28;20095;-81
2023/06/13 03:36:22;;;;;;;5.03;3.40;;;23.50;50.60;;;;;;5033873;28;20048;-80
2023/06/13 03:38:48;;;;;;;6.55;3.42;;;23.50;50.20;;;;;;5033538;28;20377;-79
2023/06/13 03:41:13;;;;;;;6.13;3.15;;;23.40;50.00;;;;;;5033510;28;20025;-79
2023/06/13 03:43:40;;;;;;;4.32;3.00;;;23.20;50.50;;;;;;5015644;28;20054;-78
2023/06/13 03:46:06;;;;;;;6.03;3.17;;;23.20;51.00;;;;;;5016116;28;20036;-79
2023/06/13 03:48:31;;;;;;;4.47;3.03;;;23.30;51.60;;;;;;5032124;28;20034;-79
2023/06/13 03:50:57;;;;;;;3.10;2.72;;;23.30;51.40;;;;;;5033479;28;20036;-78
2023/06/13 03:53:23;;;;;;;5.15;3.00;;;23.30;51.00;;;;;;5032849;28;20264;-79
2023/06/13 03:55:49;;;;;;;3.47;2.30;;;23.30;51.10;;;;;;5033179;28;20473;-80
2023/06/13 03:58:15;;;;;;;5.47;2.90;;;23.30;51.10;;;;;;5032048;28;20463;-80
2023/06/13 04:00:42;;;;;;;6.78;3.97;;;23.30;51.80;;;;;;5032219;28;20080;-80
2023/06/13 04:03:10;;;;;;;3.97;2.78;;;23.30;51.30;;;;;;5031932;28;20034;-80
2023/06/13 04:05:36;;;;;;;3.70;3.25;;;23.40;52.30;;;;;;5032562;28;20044;-80
2023/06/13 04:08:06;;;;;;;3.00;2.80;;;23.40;51.10;;;;;;5015658;28;20037;-80
2023/06/13 04:10:32;;;;;;;4.25;2.88;;;23.40;51.30;;;;;;5033324;28;20038;-79
2023/06/13 04:12:58;;;;;;;4.60;3.10;;;23.40;52.30;;;;;;5034714;28;20584;-80
2023/06/13 04:15:23;;;;;;;3.90;3.10;;;23.30;50.50;;;;;;5035899;28;20041;-80
2023/06/13 04:17:52;;;;;;;5.40;2.85;;;23.30;50.90;;;;;;5035728;28;20055;-80
2023/06/13 04:20:20;;;;;;;6.47;2.90;;;23.40;51.30;;;;;;5037220;28;20021;-79
2023/06/13 04:22:46;;;;;;;4.35;2.70;;;23.30;50.80;;;;;;5035833;28;20112;-79
2023/06/13 04:25:12;;;;;;;2.83;2.50;;;23.40;51.00;;;;;;5035525;28;20095;-81
2023/06/13 04:27:38;;;;;;;6.00;2.80;;;23.30;50.90;;;;;;5019089;28;20474;-80
2023/06/13 04:30:05;;;;;;;2.65;2.38;;;23.40;51.30;;;;;;5035650;28;20087;-80
2023/06/13 04:32:33;;;;;;;5.22;2.85;;;23.50;51.40;;;;;;5036690;28;20029;-79
2023/06/13 04:34:59;;;;;;;4.03;3.40;;;23.50;50.70;;;;;;5034902;28;20367;-79
2023/06/13 04:37:25;;;;;;;4.97;2.67;;;23.40;50.50;;;;;;5035574;28;20052;-80
2023/06/13 04:39:55;;;;;;;3.35;2.60;;;23.30;50.90;;;;;;5035612;28;20041;-79
2023/06/13 04:42:26;;;;;;;5.95;3.45;;;23.40;51.30;;;;;;5035109;28;20047;-79
2023/06/13 04:44:56;;;;;;;3.30;2.80;;;23.40;50.90;;;;;;5035004;28;20052;-79
2023/06/13 04:47:30;;;;;;;4.22;2.90;;;23.30;51.30;;;;;;5036228;28;20061;-80
2023/06/13 04:49:59;;;;;;;5.20;3.15;;;23.30;51.30;;;;;;5036186;28;20052;-80
2023/06/13 04:52:35;;;;;;;5.13;2.88;;;23.40;51.40;;;;;;5036461;28;20022;-80
2023/06/13 04:55:02;;;;;;;5.90;2.83;;;23.30;51.20;;;;;;5035124;28;20033;-79
2023/06/13 04:57:28;;;;;;;3.85;3.17;;;23.20;51.00;;;;;;5018562;28;20124;-79
2023/06/13 04:59:55;;;;;;;4.97;3.28;;;23.10;51.20;;;;;;5002193;28;20124;-79
2023/06/13 05:02:22;;;;;;;5.85;3.35;;;23.00;51.10;;;;;;5036302;28;20025;-79
2023/06/13 05:04:48;;;;;;;6.80;3.38;;;23.00;51.30;;;;;;5034308;28;20148;-79
2023/06/13 05:07:15;;;;;;;4.55;3.30;;;22.80;51.40;;;;;;5036178;28;20492;-80
2023/06/13 05:09:43;;;;;;;7.20;3.53;;;22.80;51.80;;;;;;5034767;28;20022;-79
2023/06/13 05:12:10;;;;;;;3.38;3.00;;;22.80;51.80;;;;;;5034425;28;20040;-79
2023/06/13 05:14:36;;;;;;;3.33;2.78;;;22.90;51.90;;;;;;5034693;28;20026;-79
2023/06/13 05:17:05;;;;;;;4.95;3.05;;;23.00;51.80;;;;;;5034513;28;20033;-80
2023/06/13 05:19:31;;;;;;;4.50;3.25;;;23.10;51.90;;;;;;5035929;28;20028;-81
2023/06/13 05:21:58;;;;;;;5.07;3.10;;;23.10;52.00;;;;;;5034480;28;20026;-78
2023/06/13 05:24:24;;;;;;;3.85;3.22;;;23.20;51.50;;;;;;5035411;28;20038;-79
2023/06/13 05:26:50;;;;;;;4.70;2.88;;;23.20;51.30;;;;;;5034601;28;20458;-79
2023/06/13 05:29:15;;;;;;;5.55;3.33;;;23.00;51.20;;;;;;5017924;28;20032;-80
2023/06/13 05:31:41;;;;;;;5.35;3.05;;;23.00;51.60;;;;;;5034265;28;20033;-78
2023/06/13 05:34:07;;;;;;;6.63;2.97;;;23.00;51.80;;;;;;5034772;28;20038;-80
2023/06/13 05:36:32;;;;;;;5.85;3.22;;;23.00;51.80;;;;;;5034928;28;20029;-79
2023/06/13 05:39:00;;;;;;;5.82;3.22;;;23.10;51.90;;;;;;5034039;28;20104;-79
2023/06/13 05:41:25;;;;;;;5.35;2.85;;;23.20;51.60;;;;;;5018009;28;20028;-79
2023/06/13 05:43:51;;;;;;;6.30;2.85;;;23.20;51.40;;;;;;5034844;28;20058;-79
2023/06/13 05:46:17;;;;;;;4.40;3.05;;;23.30;51.60;;;;;;5035567;28;20051;-79
2023/06/13 05:48:43;;;;;;;5.57;3.75;;;23.30;51.30;;;;;;5034948;28;20466;-79
2023/06/13 05:51:08;;;;;;;7.00;3.45;;;23.30;51.00;;;;;;5017495;28;20033;-79
2023/06/13 05:53:34;;;;;;;5.82;3.17;;;23.30;51.20;;;;;;5033936;28;20026;-78
2023/06/13 05:55:59;;;;;;;7.50;3.28;;;23.30;51.20;;;;;;5017323;28;20175;-80
2023/06/13 05:58:25;;;;;;;4.40;3.10;;;23.20;51.40;;;;;;5034656;28;20040;-79
2023/06/13 06:00:52;;;;;;;4.05;3.17;;;23.20;51.70;;;;;;5033558;28;20038;-79
2023/06/13 06:03:18;;;;;;;5.00;2.70;;;23.20;51.80;;;;;;5033238;28;20088;-79
2023/06/13 06:05:44;;;;;;;6.88;3.33;;;23.10;51.90;;;;;;5034315;28;20034;-79
2023/06/13 06:08:10;;;;;;;5.35;3.10;;;23.10;52.10;;;;;;5033377;28;20037;-78
2023/06/13 06:10:35;;;;;;;7.00;3.00;;;23.10;52.40;;;;;;5033105;28;20053;-79
2023/06/13 06:13:01;;;;;;;5.93;3.22;;;23.20;52.00;;;;;;5033411;28;20032;-78
2023/06/13 06:15:27;;;;;;;4.43;2.90;;;23.10;52.00;;;;;;5016648;28;20033;-79
2023/06/13 06:17:52;;;;;;;8.68;3.25;;;23.20;51.90;;;;;;5016266;28;20033;-79
2023/06/13 06:20:18;;;;;;;6.18;3.20;;;23.30;52.60;;;;;;5033629;28;20033;-79
2023/06/13 06:22:44;;;;;;;5.57;3.38;;;23.30;52.20;;;;;;5032870;28;20029;-79
2023/06/13 06:25:12;;;;;;;6.97;2.80;;;23.30;52.40;;;;;;5033926;28;20046;-79
2023/06/13 06:27:39;;;;;;;5.35;3.30;;;23.40;52.60;;;;;;5032897;28;20466;-80
2023/06/13 06:30:05;;;;;;;5.50;3.45;;;23.50;52.20;;;;;;5034223;28;20033;-79
2023/06/13 06:32:31;;;;;;;5.68;3.28;;;23.50;52.10;;;;;;5032990;28;20033;-79
2023/06/13 06:34:57;;;;;;;8.13;3.00;;;23.60;52.30;;;;;;5033194;28;20244;-79
2023/06/13 06:37:22;;;;;;;8.90;3.15;;;23.60;52.30;;;;;;5034084;28;20022;-79
2023/06/13 06:39:48;;;;;;;6.20;3.08;;;23.70;52.50;;;;;;5033023;28;20029;-80
2023/06/13 06:42:14;;;;;;;6.25;3.00;;;23.80;52.50;;;;;;5033857;28;20517;-79
2023/06/13 06:44:40;;;;;;;6.30;3.20;;;23.90;52.20;;;;;;5016406;28;20042;-78
2023/06/13 06:47:05;;;;;;;4.70;3.10;;;23.90;52.30;;;;;;5032618;28;20113;-79
2023/06/13 06:49:31;;;;;;;5.88;3.15;;;23.90;52.20;;;;;;5032631;28;20137;-78
2023/06/13 06:51:57;;;;;;;4.38;2.92;;;24.00;52.40;;;;;;5032498;28;20025;-78
2023/06/13 06:54:22;;;;;;;5.45;3.10;;;24.00;52.40;;;;;;5034237;28;20096;-79
2023/06/13 06:56:48;;;;;;;6.65;3.33;;;24.00;52.40;;;;;;5032461;28;20458;-78
2023/06/13 06:59:14;;;;;;;6.45;3.20;;;24.10;52.70;;;;;;5016330;28;20087;-80
2023/06/13 07:01:40;;;;;;;9.65;3.38;;;24.20;52.80;;;;;;5034154;28;20057;-79
2023/06/13 07:04:06;;;;;;;6.03;3.13;;;24.40;52.60;;;;;;5033708;28;20065;-78
2023/06/13 07:06:31;;;;;;;3.35;2.72;;;24.40;52.60;;;;;;5033809;28;20108;-79
2023/06/13 07:08:57;;;;;;;5.35;3.08;;;24.60;52.40;;;;;;5032462;28;20381;-78
2023/06/13 07:11:23;;;;;;;5.60;3.20;;;24.80;51.90;;;;;;5032397;28;20091;-79
2023/06/13 07:13:48;;;;;;;4.20;3.28;;;24.80;51.90;;;;;;5033674;28;20121;-79
2023/06/13 07:16:14;;;;;;;13.05;3.42;;;24.80;52.20;;;;;;5016020;28;20451;-79
2023/06/13 07:18:40;;;;;;;7.55;3.30;;;24.90;52.10;;;;;;5032429;28;20037;-78
2023/06/13 07:21:06;;;;;;;4.63;3.20;;;24.90;51.80;;;;;;5033503;28;20454;-79
2023/06/13 07:23:31;;;;;;;5.05;3.05;;;24.90;51.50;;;;;;5033604;28;20030;-79
2023/06/13 07:25:57;;;;;;;6.32;3.38;;;25.00;51.70;;;;;;5032124;28;20458;-78
2023/06/13 07:28:22;;;;;;;6.25;2.92;;;25.00;51.90;;;;;;5015838;28;20036;-78
2023/06/13 07:30:48;;;;;;;3.10;2.80;;;25.00;52.50;;;;;;5032207;28;20454;-78
2023/06/13 07:33:14;;;;;;;3.17;2.88;;;25.00;52.90;;;;;;5031937;28;20033;-79
2023/06/13 07:35:40;;;;;;;3.22;2.83;;;25.20;52.00;;;;;;5031419;28;20029;-78
2023/06/13 07:38:06;;;;;;;4.75;2.65;;;25.30;51.70;;;;;;5015718;28;20032;-78
2023/06/13 07:40:31;;;;;;;5.10;3.22;;;25.40;51.90;;;;;;5016830;28;20030;-79
2023/06/13 07:42:57;;;;;;;11.32;3.83;;;25.50;51.80;;;;;;5032570;28;20478;-79
2023/06/13 07:45:22;;;;;;;4.53;3.10;;;25.50;50.90;;;;;;5032141;28;20042;-81
2023/06/13 07:47:48;;;;;;;6.72;3.67;;;25.40;50.80;;;;;;5036052;28;20041;-81
2023/06/13 07:50:16;;;;;;;4.25;2.97;;;25.50;51.10;;;;;;5035864;28;20029;-80
2023/06/13 07:52:42;;;;;;;5.60;3.20;;;25.50;50.50;;;;;;5036289;28;20029;-80
2023/06/13 07:55:08;;;;;;;9.80;3.35;;;25.60;50.70;;;;;;5037148;28;20036;-80
2023/06/13 07:57:34;;;;;;;6.32;3.30;;;25.60;50.50;;;;;;5036030;28;20079;-80
2023/06/13 08:00:00;;;;;;;10.05;3.30;;;25.70;50.00;;;;;;5037594;28;20030;-80
2023/06/13 08:02:26;;;;;;;4.65;3.08;;;25.80;50.20;;;;;;5036430;28;20030;-80
2023/06/13 08:04:52;;;;;;;8.35;2.95;;;25.90;50.30;;;;;;5035632;28;20033;-80
2023/06/13 08:07:18;;;;;;;5.50;3.05;;;26.00;50.60;;;;;;5035396;28;20434;-80
2023/06/13 08:09:44;;;;;;;4.03;2.95;;;26.10;50.40;;;;;;5036057;28;20125;-79
2023/06/13 08:12:10;;;;;;;4.63;3.00;;;26.20;50.00;;;;;;5037085;28;20053;-80
2023/06/13 08:14:36;;;;;;;6.40;3.15;;;26.40;49.80;;;;;;5037123;28;20029;-79
2023/06/13 08:17:02;;;;;;;6.30;2.92;;;26.50;50.20;;;;;;5019019;28;20041;-80
2023/06/13 08:19:27;;;;;;;6.45;3.50;;;26.60;49.30;;;;;;5035699;28;20025;-80
2023/06/13 08:21:53;;;;;;;4.78;2.92;;;26.60;48.90;;;;;;5035676;28;20120;-81
2023/06/13 08:24:19;;;;;;;4.68;2.55;;;26.60;49.30;;;;;;5036698;28;20034;-80
2023/06/13 08:26:44;;;;;;;6.20;2.85;;;26.70;48.60;;;;;;5035687;28;20026;-79
2023/06/13 08:29:11;;;;;;;5.22;2.95;;;26.70;47.50;;;;;;5019197;28;20033;-80
2023/06/13 08:31:40;;;;;;;6.57;3.03;;;26.70;47.60;;;;;;5035591;28;20040;-80
2023/06/13 08:34:06;;;;;;;5.55;3.20;;;26.80;47.80;;;;;;5035162;28;20060;-80
2023/06/13 08:36:35;;;;;;;4.97;2.85;;;26.90;48.30;;;;;;5034665;28;20103;-80
2023/06/13 08:39:03;;;;;;;7.22;3.00;;;26.90;48.80;;;;;;5035304;28;20137;-78
2023/06/13 08:41:30;;;;;;;8.93;3.78;;;26.90;48.40;;;;;;5035943;28;20033;-80
2023/06/13 08:43:58;;;;;;;10.50;3.15;;;27.00;47.80;;;;;;5035805;28;20099;-80
2023/06/13 08:46:24;;;;;;;3.90;2.92;;;27.10;47.00;;;;;;5035269;28;20034;-80
2023/06/13 08:48:50;;;;;;;5.03;3.03;;;27.30;47.40;;;;;;5036263;28;20029;-79
2023/06/13 08:51:18;;;;;;;4.50;2.70;;;27.30;47.00;;;;;;5036104;28;20390;-79
2023/06/13 08:53:56;;;;;;;4.85;2.70;;;27.40;46.50;;;;;;5035870;28;20128;-79
2023/06/13 08:56:25;;;;;;;6.50;3.00;;;27.50;46.20;;;;;;5035004;28;20025;-79
2023/06/13 08:59:00;;;;;;;5.57;2.78;;;27.50;45.50;;;;;;5034274;28;20025;-79
2023/06/13 09:01:27;;;;;;;6.60;2.97;;;27.60;46.00;;;;;;5034598;28;20033;-80
2023/06/13 09:03:57;;;;;;;5.90;3.20;;;27.60;45.90;;;;;;5035820;28;20167;-80
2023/06/13 09:06:23;;;;;;;3.58;2.35;;;27.60;45.90;;;;;;5035846;28;20049;-79
2023/06/13 09:08:51;;;;;;;3.30;2.58;;;27.70;45.30;;;;;;5034719;28;20072;-80
2023/06/13 09:11:18;;;;;;;4.35;2.60;;;27.70;44.20;;;;;;5034523;28;20111;-81
2023/06/13 09:13:45;;;;;;;4.97;2.65;;;27.80;44.20;;;;;;5034361;28;20037;-80
2023/06/13 09:16:11;;;;;;;2.83;2.35;;;28.00;45.20;;;;;;5034894;28;20033;-80
2023/06/13 09:18:42;;;;;;;6.22;2.70;;;28.20;44.50;;;;;;5035563;28;20025;-78
2023/06/13 09:21:11;;;;;;;7.32;2.83;;;28.20;43.60;;;;;;5035882;28;20060;-79
2023/06/13 09:23:38;;;;;;;3.50;2.53;;;28.20;43.40;;;;;;5002149;28;20436;-80
2023/06/13 09:26:06;;;;;;;5.72;2.70;;;28.30;43.00;;;;;;5034370;28;20026;-80
2023/06/13 09:28:31;;;;;;;4.03;2.60;;;28.50;44.00;;;;;;5034406;28;20030;-80
2023/06/13 09:30:57;;;;;;;3.67;2.55;;;28.70;42.90;;;;;;5035742;28;20385;-80
2023/06/13 09:33:23;;;;;;;5.13;2.47;;;28.80;41.80;;;;;;5035617;28;20458;-80
2023/06/13 09:35:52;;;;;;;3.65;2.80;;;28.70;41.00;;;;;;5034140;28;20476;-80
2023/06/13 09:38:23;;;;;;;2.85;2.55;;;28.60;41.40;;;;;;5035609;28;20036;-80
2023/06/13 09:40:50;;;;;;;6.18;2.47;;;28.60;41.50;;;;;;5034011;28;20425;-79
2023/06/13 09:43:16;;;;;;;5.63;2.50;;;28.50;42.00;;;;;;5017473;28;20103;-79
2023/06/13 09:45:47;;;;;;;3.80;2.40;;;28.60;42.40;;;;;;5034072;28;20053;-80
2023/06/13 09:48:13;;;;;;;4.23;2.27;;;28.80;42.00;;;;;;5033723;28;20107;-80
2023/06/13 09:50:40;;;;;;;6.85;2.90;;;28.90;41.30;;;;;;5035176;28;20060;-79
2023/06/13 09:53:07;;;;;;;5.15;3.10;;;29.10;41.20;;;;;;5017741;28;20030;-79
2023/06/13 09:55:34;;;;;;;3.70;2.55;;;29.10;40.90;;;;;;5034824;28;20048;-80
2023/06/13 09:58:01;;;;;;;5.90;2.63;;;29.20;40.90;;;;;;5033908;28;20036;-80
2023/06/13 10:00:28;;;;;;;6.95;2.50;;;29.30;41.20;;;;;;5033559;28;20053;-80
2023/06/13 10:02:54;;;;;;;6.60;2.40;;;29.30;40.50;;;;;;5033594;28;20080;-78
2023/06/13 10:05:20;;;;;;;4.57;2.65;;;29.40;40.40;;;;;;5033708;28;20534;-80
2023/06/13 10:07:46;;;;;;;4.68;2.42;;;29.60;40.20;;;;;;5034395;28;20597;-79
2023/06/13 10:10:12;;;;;;;4.95;2.25;;;29.50;39.00;;;;;;5016276;28;20056;-79
2023/06/13 10:12:45;;;;;;;3.78;3.30;;;29.40;39.50;;;;;;5033735;28;20087;-79
2023/06/13 10:15:14;;;;;;;3.55;2.83;;;29.30;39.90;;;;;;5035008;28;20109;-81
2023/06/13 10:17:45;;;;;;;4.03;2.83;;;29.30;40.40;;;;;;5034535;28;20021;-80
2023/06/13 10:20:11;;;;;;;6.60;3.20;;;29.50;40.70;;;;;;5033507;28;20508;-79
2023/06/13 10:22:41;;;;;;;3.80;2.63;;;29.60;39.50;;;;;;5033340;28;20401;-80
2023/06/13 10:25:11;;;;;;;4.30;2.75;;;29.60;39.70;;;;;;5032866;28;20036;-80
2023/06/13 10:27:43;;;;;;;5.90;2.63;;;29.60;39.80;;;;;;5033343;28;20072;-80
2023/06/13 10:30:31;;;;;;;5.88;3.08;;;29.70;39.40;;;;;;5033429;28;20417;-80
2023/06/13 10:33:34;;;;;;;5.82;3.22;;;29.80;40.00;;;;;;5034311;28;20029;-80
2023/06/13 10:36:23;;;;;;;4.28;2.90;;;29.90;40.00;;;;;;5032717;28;20021;-80
2023/06/13 10:39:20;;;;;;;8.65;2.78;;;29.80;40.30;;;;;;5034401;28;20025;-79
2023/06/13 10:41:53;;;;;;;8.05;3.50;;;29.90;40.30;;;;;;5032891;28;20083;-79
2023/06/13 10:44:50;;;;;;;3.30;2.90;;;29.90;40.00;;;;;;5034195;28;20123;-80
2023/06/13 10:47:18;;;;;;;2.65;2.42;;;29.90;39.60;;;;;;5032823;28;20037;-79
2023/06/13 10:49:48;;;;;;;5.25;2.90;;;30.10;40.40;;;;;;5033798;28;20037;-79
2023/06/13 10:52:13;;;;;;;3.92;2.90;;;30.20;40.00;;;;;;5034317;28;20124;-80
2023/06/13 10:54:40;;;;;;;6.07;2.70;;;30.40;39.30;;;;;;5032744;28;20111;-79
2023/06/13 10:57:07;;;;;;;5.03;2.80;;;30.40;38.90;;;;;;5032606;28;20072;-80
2023/06/13 10:59:37;;;;;;;3.08;2.53;;;30.50;38.60;;;;;;5032761;28;20039;-79
2023/06/13 11:02:05;;;;;;;5.72;2.83;;;30.50;39.30;;;;;;5033949;28;20076;-79
2023/06/13 11:04:32;;;;;;;4.20;2.40;;;30.60;38.70;;;;;;5032211;28;20037;-80
2023/06/13 11:07:25;;;;;;;3.70;2.90;;;30.60;38.60;;;;;;5016284;28;20124;-81
2023/06/13 11:10:08;;;;;;;3.60;2.65;;;30.60;38.70;;;;;;5033400;28;20029;-79
2023/06/13 11:12:34;;;;;;;4.57;2.72;;;30.60;38.40;;;;;;5033777;28;20053;-80
2023/06/13 11:15:00;;;;;;;5.07;2.88;;;30.60;38.80;;;;;;5031900;28;20171;-80
2023/06/13 11:17:27;;;;;;;4.97;3.00;;;30.50;39.40;;;;;;5032200;28;20065;-81
2023/06/13 11:19:55;;;;;;;5.95;2.63;;;30.60;39.70;;;;;;5033359;28;20025;-80
2023/06/13 11:22:22;;;;;;;5.03;2.88;;;30.70;38.90;;;;;;5032223;28;20036;-81
2023/06/13 11:24:49;;;;;;;6.00;2.83;;;30.70;38.90;;;;;;5032048;28;20033;-80
2023/06/13 11:27:16;;;;;;;5.88;2.80;;;30.80;38.90;;;;;;5033727;28;20061;-79
2023/06/13 11:29:45;;;;;;;3.78;2.80;;;30.80;38.90;;;;;;5016197;28;20061;-79
2023/06/13 11:32:12;;;;;;;6.05;3.58;;;30.90;38.00;;;;;;5031909;28;20033;-81
2023/06/13 11:34:50;;;;;;;5.25;3.00;;;30.90;38.70;;;;;;5032879;28;20488;-80
2023/06/13 11:37:45;;;;;;;8.10;3.08;;;31.00;38.50;;;;;;5033865;28;20026;-80
2023/06/13 11:40:19;;;;;;;5.22;2.97;;;31.00;38.60;;;;;;5030314;28;20044;-80
2023/06/13 11:42:45;;;;;;;7.03;3.22;;;31.00;37.60;;;;;;5033305;28;20036;-81
2023/06/13 11:45:10;;;;;;;4.68;3.10;;;31.00;38.40;;;;;;5031464;28;20144;-79
2023/06/13 11:47:36;;;;;;;6.20;2.90;;;31.00;37.90;;;;;;5033046;28;20045;-81
2023/06/13 11:50:02;;;;;;;3.95;2.95;;;31.10;37.60;;;;;;5032187;28;20045;-81
2023/06/13 11:52:27;;;;;;;4.63;3.28;;;31.00;37.40;;;;;;5032193;28;20080;-80
2023/06/13 11:54:54;;;;;;;4.60;2.80;;;31.10;37.40;;;;;;5032352;28;20034;-80
2023/06/13 11:57:20;;;;;;;6.25;2.72;;;31.00;37.70;;;;;;5032328;28;20036;-80
2023/06/13 11:59:45;;;;;;;5.70;3.08;;;30.80;38.10;;;;;;5032131;28;20030;-79
2023/06/13 12:02:15;;;;;;;6.97;3.47;;;30.70;38.20;;;;;;5015399;28;20078;-81
2023/06/13 12:04:43;;;;;;;6.20;3.13;;;30.80;38.40;;;;;;5031314;28;20033;-79
2023/06/13 12:07:09;;;;;;;6.40;3.13;;;30.90;38.40;;;;;;5031913;28;20565;-80
2023/06/13 12:09:35;;;;;;;5.20;3.20;;;31.00;38.10;;;;;;5032712;28;20060;-80
2023/06/13 12:12:02;;;;;;;3.90;2.95;;;31.00;37.30;;;;;;4999151;28;20485;-80
2023/06/13 12:14:30;;;;;;;3.88;2.83;;;31.00;37.20;;;;;;5032939;28;20034;-81
2023/06/13 12:16:55;;;;;;;3.25;2.83;;;31.00;37.80;;;;;;5031578;28;20026;-79
2023/06/13 12:19:22;;;;;;;5.68;3.10;;;31.10;38.10;;;;;;5013983;28;20107;-80
2023/06/13 12:21:57;;;;;;;3.03;2.70;;;31.30;37.40;;;;;;5031476;28;20386;-80
2023/06/13 12:24:25;;;;;;;4.13;2.78;;;31.40;38.10;;;;;;5015006;28;20041;-81
2023/06/13 12:26:52;;;;;;;4.90;2.88;;;31.40;37.40;;;;;;5031529;28;20037;-80
2023/06/13 12:29:23;;;;;;;4.38;3.03;;;31.50;37.40;;;;;;5032721;28;20510;-80
2023/06/13 12:31:56;;;;;;;6.93;2.80;;;31.50;36.80;;;;;;5033039;28;20053;-80
2023/06/13 12:34:34;;;;;;;4.25;2.88;;;31.40;37.50;;;;;;5035222;28;20052;-79
2023/06/13 12:37:03;;;;;;;4.68;2.83;;;31.40;37.50;;;;;;5036274;28;20497;-81
2023/06/13 12:39:30;;;;;;;5.50;3.03;;;31.30;37.10;;;;;;5035882;28;20509;-80
2023/06/13 12:42:07;;;;;;;4.00;2.92;;;31.40;37.90;;;;;;5036429;28;20445;-80
2023/06/13 12:44:34;;;;;;;3.40;2.50;;;31.50;38.00;;;;;;5036381;28;20073;-79
2023/06/13 12:47:04;;;;;;;6.90;3.50;;;31.50;37.70;;;;;;5036367;28;20029;-79
2023/06/13 12:49:36;;;;;;;5.20;2.85;;;31.50;37.90;;;;;;5036380;28;20053;-81